Bookmark and Share
Track history (hours):
 

Ken Boothe Sr

More information available from US FCC via Universal Licensing System and Coast Guard Vessel Documentation Center.

Last reported at 2014-Apr-21 19:16 UTC. Time now 2014-Apr-23 19:03 UTC.
Position N 45°48' W 084°04'.

Length 30 m; draft 8.1 m.

Type: Towing. MMSI: 367525230.

NotesDate/timePositionNaut miles runAvg speedWind from/ knotsBaromVisibWave heightAir tempDewpointWater temp
2014-Apr-21 19:16N 45°48' W 084°04'811.2
2014-Apr-21 18:33N 45°51' W 084°15'1211.7
2014-Apr-21 17:33N 45°51' W 084°32'10 9.8
2014-Apr-21 16:33N 45°49' W 084°46'1010.0
2014-Apr-21 15:33N 45°50' W 084°60'1110.9
2014-Apr-21 14:34N 45°52' W 085°15'8 8.5
2014-Apr-21 13:34N 45°53' W 085°27'7 6.9
2014-Apr-21 12:33N 45°53' W 085°37'0 0.1
2014-Apr-21 11:33N 45°53' W 085°37'0 0.0
2014-Apr-21 10:33N 45°53' W 085°37'0 0.0
2014-Apr-21 09:33N 45°53' W 085°37'0 0.2
2014-Apr-21 08:33N 45°53' W 085°37'0 0.2
2014-Apr-21 07:33N 45°54' W 085°37'0 0.0
2014-Apr-21 06:33N 45°54' W 085°37'0 0.1
2014-Apr-21 05:33N 45°54' W 085°37'0 0.0
2014-Apr-21 04:33N 45°54' W 085°37'0 0.0
2014-Apr-21 03:33N 45°54' W 085°37'0 0.0
2014-Apr-21 02:33N 45°54' W 085°37'0 0.0
2014-Apr-21 01:33N 45°54' W 085°37'0 0.1
2014-Apr-21 00:33N 45°54' W 085°37'0 0.0
2014-Apr-20 23:33N 45°54' W 085°37'0 0.1
2014-Apr-20 22:33N 45°54' W 085°37'0 0.0
2014-Apr-20 21:33N 45°54' W 085°37'0 0.1
2014-Apr-20 20:33N 45°54' W 085°37'5 4.9
2014-Apr-20 19:33N 45°52' W 085°44'10 9.8
2014-Apr-20 18:33N 45°47' W 085°56'1110.8
2014-Apr-20 17:33N 45°43' W 086°10'1211.4
2014-Apr-20 16:32N 45°36' W 086°24'29 1.7
2014-Apr-19 23:15N 45°46' W 087°03'  
2014-Apr-16 06:33N 45°03' W 086°23'1212.3
2014-Apr-16 05:33N 45°15' W 086°18'1212.3
2014-Apr-16 04:33N 45°27' W 086°14'1211.8
2014-Apr-16 03:33N 45°38' W 086°08'1111.5
2014-Apr-16 02:33N 45°45' W 085°55'1212.2
2014-Apr-16 01:33N 45°52' W 085°40'9 9.5
2014-Apr-16 00:33N 45°53' W 085°27'4 4.4
2014-Apr-15 23:33N 45°54' W 085°21'5 5.4
2014-Apr-15 22:33N 45°54' W 085°13'1 1.2
2014-Apr-15 21:33N 45°53' W 085°12'0 0.1
2014-Apr-15 20:33N 45°53' W 085°11'4 3.7
2014-Apr-15 19:33N 45°51' W 085°07'3 2.6
2014-Apr-15 18:33N 45°51' W 085°04'3 3.4
2014-Apr-15 17:33N 45°50' W 084°59'5 5.4
2014-Apr-15 16:33N 45°50' W 084°51'6 5.6
2014-Apr-15 15:33N 45°49' W 084°43'9 9.1
2014-Apr-15 14:33N 45°52' W 084°31'10 4.9
2014-Apr-15 12:34N 45°56' W 084°18'0 0.1
2014-Apr-15 11:34N 45°56' W 084°18'0 0.0
2014-Apr-15 10:34N 45°56' W 084°18'0 0.1
2014-Apr-15 09:34N 45°56' W 084°18'0 0.0
2014-Apr-15 08:34N 45°56' W 084°18'0 0.0
2014-Apr-15 07:34N 45°56' W 084°18'0 0.0
2014-Apr-15 06:34N 45°56' W 084°18'0 0.0
2014-Apr-15 05:34N 45°56' W 084°18'0 0.0
2014-Apr-15 03:34N 45°56' W 084°18'0 0.0
2014-Apr-15 02:34N 45°56' W 084°18'0 0.1
2014-Apr-15 01:34N 45°56' W 084°18'0 0.0
2014-Apr-15 00:34N 45°56' W 084°18'0 0.0
2014-Apr-14 23:34N 45°56' W 084°18'0 0.0
2014-Apr-14 22:34N 45°56' W 084°18'0 0.0
2014-Apr-14 21:34N 45°56' W 084°18'0 0.0
2014-Apr-14 20:34N 45°56' W 084°18'0 0.0
2014-Apr-14 19:34N 45°56' W 084°18'0 0.0
2014-Apr-14 18:34N 45°56' W 084°18'0 0.0
2014-Apr-14 17:34N 45°56' W 084°18'0 0.0
2014-Apr-14 16:34N 45°56' W 084°18'0 0.0
2014-Apr-14 15:34N 45°56' W 084°18'0 0.0
2014-Apr-14 14:34N 45°56' W 084°18'0 0.0
2014-Apr-14 13:34N 45°56' W 084°18'0 0.0
2014-Apr-14 11:34N 45°56' W 084°18'0 0.0
2014-Apr-14 10:34N 45°56' W 084°18'0 0.0
2014-Apr-14 09:34N 45°56' W 084°18'0 0.0
2014-Apr-14 08:34N 45°56' W 084°18'0 0.0
2014-Apr-14 07:34N 45°56' W 084°18'0 0.0
2014-Apr-14 06:34N 45°56' W 084°18'0 0.0
2014-Apr-14 05:33N 45°56' W 084°18'  

Dump ship's entire track history

sailing weather and tide predictions

Ken Boothe Sr — WDG3360 — position and weather